sensor_id;sensor_type;location;lat;lon;timestamp;P1;P2;P0
77538;PMS7003;67783;51.656;16.106;2023-05-16T00:01:20;3;3;2
77538;PMS7003;67783;51.656;16.106;2023-05-16T00:04:24;6;5;3
77538;PMS7003;67783;51.656;16.106;2023-05-16T00:07:29;3;3;3
77538;PMS7003;67783;51.656;16.106;2023-05-16T00:10:31;4;4;3
77538;PMS7003;67783;51.656;16.106;2023-05-16T00:13:32;5;4;3
77538;PMS7003;67783;51.656;16.106;2023-05-16T00:16:34;4;4;3
77538;PMS7003;67783;51.656;16.106;2023-05-16T00:19:37;4;4;3
77538;PMS7003;67783;51.656;16.106;2023-05-16T00:22:49;2;2;2
77538;PMS7003;67783;51.656;16.106;2023-05-16T00:25:51;3;3;2
77538;PMS7003;67783;51.656;16.106;2023-05-16T00:28:52;2;2;2
77538;PMS7003;67783;51.656;16.106;2023-05-16T00:31:54;3;3;2
77538;PMS7003;67783;51.656;16.106;2023-05-16T00:34:56;6;4;3
77538;PMS7003;67783;51.656;16.106;2023-05-16T00:37:57;4;4;3
77538;PMS7003;67783;51.656;16.106;2023-05-16T00:40:59;3;3;3
77538;PMS7003;67783;51.656;16.106;2023-05-16T00:44:04;2;1;1
77538;PMS7003;67783;51.656;16.106;2023-05-16T00:47:06;3;3;2
77538;PMS7003;67783;51.656;16.106;2023-05-16T00:50:08;3;2;2
77538;PMS7003;67783;51.656;16.106;2023-05-16T00:53:10;3;3;3
77538;PMS7003;67783;51.656;16.106;2023-05-16T00:56:12;2;2;1
77538;PMS7003;67783;51.656;16.106;2023-05-16T00:59:14;4;4;3
77538;PMS7003;67783;51.656;16.106;2023-05-16T01:02:16;4;2;2
77538;PMS7003;67783;51.656;16.106;2023-05-16T01:05:21;2;2;2
77538;PMS7003;67783;51.656;16.106;2023-05-16T01:08:23;2;2;1
77538;PMS7003;67783;51.656;16.106;2023-05-16T01:11:26;3;3;2
77538;PMS7003;67783;51.656;16.106;2023-05-16T01:14:37;3;3;3
77538;PMS7003;67783;51.656;16.106;2023-05-16T01:17:49;3;2;2
77538;PMS7003;67783;51.656;16.106;2023-05-16T01:20:58;5;3;3
77538;PMS7003;67783;51.656;16.106;2023-05-16T01:24:08;5;5;4
77538;PMS7003;67783;51.656;16.106;2023-05-16T01:27:16;3;3;3
77538;PMS7003;67783;51.656;16.106;2023-05-16T01:30:21;4;3;2
77538;PMS7003;67783;51.656;16.106;2023-05-16T01:33:22;3;3;2
77538;PMS7003;67783;51.656;16.106;2023-05-16T01:36:25;6;4;3
77538;PMS7003;67783;51.656;16.106;2023-05-16T01:39:53;3;3;2
77538;PMS7003;67783;51.656;16.106;2023-05-16T01:42:49;5;5;3
77538;PMS7003;67783;51.656;16.106;2023-05-16T01:45:57;4;4;3
77538;PMS7003;67783;51.656;16.106;2023-05-16T01:49:05;3;3;2
77538;PMS7003;67783;51.656;16.106;2023-05-16T01:52:19;3;3;3
77538;PMS7003;67783;51.656;16.106;2023-05-16T01:58:40;6;4;2
77538;PMS7003;67783;51.656;16.106;2023-05-16T02:01:42;5;3;2
77538;PMS7003;67783;51.656;16.106;2023-05-16T02:04:49;4;3;3
77538;PMS7003;67783;51.656;16.106;2023-05-16T02:07:51;3;3;2
77538;PMS7003;67783;51.656;16.106;2023-05-16T02:10:52;3;3;3
77538;PMS7003;67783;51.656;16.106;2023-05-16T02:13:54;5;2;2
77538;PMS7003;67783;51.656;16.106;2023-05-16T02:16:56;3;3;2
77538;PMS7003;67783;51.656;16.106;2023-05-16T02:19:57;3;3;2
77538;PMS7003;67783;51.656;16.106;2023-05-16T02:23:06;5;3;3
77538;PMS7003;67783;51.656;16.106;2023-05-16T02:26:11;5;2;1
77538;PMS7003;67783;51.656;16.106;2023-05-16T02:29:13;3;3;2
77538;PMS7003;67783;51.656;16.106;2023-05-16T02:32:16;4;4;3
77538;PMS7003;67783;51.656;16.106;2023-05-16T02:35:17;6;3;2
77538;PMS7003;67783;51.656;16.106;2023-05-16T02:38:20;5;5;3
77538;PMS7003;67783;51.656;16.106;2023-05-16T02:41:32;4;4;3
77538;PMS7003;67783;51.656;16.106;2023-05-16T02:44:33;4;3;2
77538;PMS7003;67783;51.656;16.106;2023-05-16T02:47:35;3;3;3
77538;PMS7003;67783;51.656;16.106;2023-05-16T02:50:37;4;4;2
77538;PMS7003;67783;51.656;16.106;2023-05-16T02:53:40;6;6;3
77538;PMS7003;67783;51.656;16.106;2023-05-16T02:56:41;3;3;2
77538;PMS7003;67783;51.656;16.106;2023-05-16T02:59:44;4;3;2
77538;PMS7003;67783;51.656;16.106;2023-05-16T03:02:48;4;4;3
77538;PMS7003;67783;51.656;16.106;2023-05-16T03:05:50;4;3;2
77538;PMS7003;67783;51.656;16.106;2023-05-16T03:08:52;3;3;2
77538;PMS7003;67783;51.656;16.106;2023-05-16T03:11:56;4;3;3
77538;PMS7003;67783;51.656;16.106;2023-05-16T03:14:59;4;4;3
77538;PMS7003;67783;51.656;16.106;2023-05-16T03:18:09;3;3;2
77538;PMS7003;67783;51.656;16.106;2023-05-16T03:21:11;5;5;4
77538;PMS7003;67783;51.656;16.106;2023-05-16T03:24:13;3;3;2
77538;PMS7003;67783;51.656;16.106;2023-05-16T03:27:14;5;4;4
77538;PMS7003;67783;51.656;16.106;2023-05-16T03:30:16;4;3;2
77538;PMS7003;67783;51.656;16.106;2023-05-16T03:33:30;5;3;3
77538;PMS7003;67783;51.656;16.106;2023-05-16T03:36:31;3;3;2
77538;PMS7003;67783;51.656;16.106;2023-05-16T03:39:33;5;5;4
77538;PMS7003;67783;51.656;16.106;2023-05-16T03:42:35;9;5;4
77538;PMS7003;67783;51.656;16.106;2023-05-16T03:45:36;3;1;0
77538;PMS7003;67783;51.656;16.106;2023-05-16T03:48:38;6;5;3
77538;PMS7003;67783;51.656;16.106;2023-05-16T03:51:39;4;3;3
77538;PMS7003;67783;51.656;16.106;2023-05-16T03:54:44;5;5;4
77538;PMS7003;67783;51.656;16.106;2023-05-16T03:57:46;7;5;4
77538;PMS7003;67783;51.656;16.106;2023-05-16T04:00:51;4;4;4
77538;PMS7003;67783;51.656;16.106;2023-05-16T04:03:53;7;4;3
77538;PMS7003;67783;51.656;16.106;2023-05-16T04:06:55;5;5;4
77538;PMS7003;67783;51.656;16.106;2023-05-16T04:10:05;4;3;2
77538;PMS7003;67783;51.656;16.106;2023-05-16T04:13:07;5;5;3
77538;PMS7003;67783;51.656;16.106;2023-05-16T04:16:09;4;4;3
77538;PMS7003;67783;51.656;16.106;2023-05-16T04:19:12;7;6;6
77538;PMS7003;67783;51.656;16.106;2023-05-16T04:22:14;8;6;4
77538;PMS7003;67783;51.656;16.106;2023-05-16T04:25:26;5;5;3
77538;PMS7003;67783;51.656;16.106;2023-05-16T04:28:27;5;5;4
77538;PMS7003;67783;51.656;16.106;2023-05-16T04:31:32;6;5;4
77538;PMS7003;67783;51.656;16.106;2023-05-16T04:34:33;5;5;4
77538;PMS7003;67783;51.656;16.106;2023-05-16T04:37:37;4;4;3
77538;PMS7003;67783;51.656;16.106;2023-05-16T04:40:46;7;7;6
77538;PMS7003;67783;51.656;16.106;2023-05-16T04:43:50;7;4;4
77538;PMS7003;67783;51.656;16.106;2023-05-16T04:46:53;4;4;3
77538;PMS7003;67783;51.656;16.106;2023-05-16T04:49:55;4;4;3
77538;PMS7003;67783;51.656;16.106;2023-05-16T04:52:57;5;5;4
77538;PMS7003;67783;51.656;16.106;2023-05-16T04:56:07;6;5;3
77538;PMS7003;67783;51.656;16.106;2023-05-16T04:59:08;5;5;4
77538;PMS7003;67783;51.656;16.106;2023-05-16T05:02:10;5;5;4
77538;PMS7003;67783;51.656;16.106;2023-05-16T05:05:12;6;6;5
77538;PMS7003;67783;51.656;16.106;2023-05-16T05:08:14;5;5;5
77538;PMS7003;67783;51.656;16.106;2023-05-16T05:11:16;7;4;4
77538;PMS7003;67783;51.656;16.106;2023-05-16T05:14:18;5;5;4
77538;PMS7003;67783;51.656;16.106;2023-05-16T05:17:23;8;8;4
77538;PMS7003;67783;51.656;16.106;2023-05-16T05:20:25;6;6;5
77538;PMS7003;67783;51.656;16.106;2023-05-16T05:23:27;6;4;3
77538;PMS7003;67783;51.656;16.106;2023-05-16T05:26:29;8;6;5
77538;PMS7003;67783;51.656;16.106;2023-05-16T05:29:31;5;5;3
77538;PMS7003;67783;51.656;16.106;2023-05-16T05:32:32;6;5;5
77538;PMS7003;67783;51.656;16.106;2023-05-16T05:35:34;8;7;4
77538;PMS7003;67783;51.656;16.106;2023-05-16T05:38:39;8;7;5
77538;PMS7003;67783;51.656;16.106;2023-05-16T05:41:40;7;7;5
77538;PMS7003;67783;51.656;16.106;2023-05-16T05:44:42;6;5;4
77538;PMS7003;67783;51.656;16.106;2023-05-16T05:47:43;5;3;3
77538;PMS7003;67783;51.656;16.106;2023-05-16T05:50:45;7;6;4
77538;PMS7003;67783;51.656;16.106;2023-05-16T05:53:47;6;6;4
77538;PMS7003;67783;51.656;16.106;2023-05-16T05:56:50;6;6;5
77538;PMS7003;67783;51.656;16.106;2023-05-16T05:59:54;6;6;4
77538;PMS7003;67783;51.656;16.106;2023-05-16T06:02:56;7;6;4
77538;PMS7003;67783;51.656;16.106;2023-05-16T06:05:58;6;6;5
77538;PMS7003;67783;51.656;16.106;2023-05-16T06:08:59;7;7;5
77538;PMS7003;67783;51.656;16.106;2023-05-16T06:12:01;7;6;5
77538;PMS7003;67783;51.656;16.106;2023-05-16T06:15:04;6;5;4
77538;PMS7003;67783;51.656;16.106;2023-05-16T06:18:06;1;1;0
77538;PMS7003;67783;51.656;16.106;2023-05-16T06:21:11;6;5;4
77538;PMS7003;67783;51.656;16.106;2023-05-16T06:24:12;9;6;5
77538;PMS7003;67783;51.656;16.106;2023-05-16T06:27:14;5;5;4
77538;PMS7003;67783;51.656;16.106;2023-05-16T06:30:16;8;8;6
77538;PMS7003;67783;51.656;16.106;2023-05-16T06:33:17;7;7;5
77538;PMS7003;67783;51.656;16.106;2023-05-16T06:36:19;8;7;5
77538;PMS7003;67783;51.656;16.106;2023-05-16T06:39:20;6;6;6
77538;PMS7003;67783;51.656;16.106;2023-05-16T06:42:25;7;5;4
77538;PMS7003;67783;51.656;16.106;2023-05-16T06:45:27;10;7;5
77538;PMS7003;67783;51.656;16.106;2023-05-16T06:48:29;9;7;6
77538;PMS7003;67783;51.656;16.106;2023-05-16T06:51:30;7;7;6
77538;PMS7003;67783;51.656;16.106;2023-05-16T06:54:32;6;6;5
77538;PMS7003;67783;51.656;16.106;2023-05-16T06:57:34;6;6;4
77538;PMS7003;67783;51.656;16.106;2023-05-16T07:00:36;7;7;6
77538;PMS7003;67783;51.656;16.106;2023-05-16T07:03:41;10;9;6
77538;PMS7003;67783;51.656;16.106;2023-05-16T07:06:42;13;10;6
77538;PMS7003;67783;51.656;16.106;2023-05-16T07:09:44;11;9;6
77538;PMS7003;67783;51.656;16.106;2023-05-16T07:12:45;8;8;5
77538;PMS7003;67783;51.656;16.106;2023-05-16T07:15:48;12;7;5
77538;PMS7003;67783;51.656;16.106;2023-05-16T07:18:49;7;7;6
77538;PMS7003;67783;51.656;16.106;2023-05-16T07:21:52;9;8;6
77538;PMS7003;67783;51.656;16.106;2023-05-16T07:24:57;8;8;6
77538;PMS7003;67783;51.656;16.106;2023-05-16T07:28:01;9;9;7
77538;PMS7003;67783;51.656;16.106;2023-05-16T07:31:03;8;7;5
77538;PMS7003;67783;51.656;16.106;2023-05-16T07:34:08;10;10;6
77538;PMS7003;67783;51.656;16.106;2023-05-16T07:37:11;10;8;6
77538;PMS7003;67783;51.656;16.106;2023-05-16T07:40:17;9;8;5
77538;PMS7003;67783;51.656;16.106;2023-05-16T07:43:25;8;7;5
77538;PMS7003;67783;51.656;16.106;2023-05-16T07:46:27;9;9;7
77538;PMS7003;67783;51.656;16.106;2023-05-16T07:49:28;8;7;6
77538;PMS7003;67783;51.656;16.106;2023-05-16T07:52:31;9;6;5
77538;PMS7003;67783;51.656;16.106;2023-05-16T07:55:38;8;7;5
77538;PMS7003;67783;51.656;16.106;2023-05-16T07:58:40;9;7;5
77538;PMS7003;67783;51.656;16.106;2023-05-16T08:01:42;9;8;6
77538;PMS7003;67783;51.656;16.106;2023-05-16T08:04:43;9;8;5
77538;PMS7003;67783;51.656;16.106;2023-05-16T08:07:45;10;9;7
77538;PMS7003;67783;51.656;16.106;2023-05-16T08:10:47;9;9;6
77538;PMS7003;67783;51.656;16.106;2023-05-16T08:13:48;8;6;4
77538;PMS7003;67783;51.656;16.106;2023-05-16T08:16:53;6;6;4
77538;PMS7003;67783;51.656;16.106;2023-05-16T08:19:54;10;10;7
77538;PMS7003;67783;51.656;16.106;2023-05-16T08:22:57;6;6;4
77538;PMS7003;67783;51.656;16.106;2023-05-16T08:25:59;7;7;5
77538;PMS7003;67783;51.656;16.106;2023-05-16T08:29:02;10;10;6
77538;PMS7003;67783;51.656;16.106;2023-05-16T08:32:14;8;7;6
77538;PMS7003;67783;51.656;16.106;2023-05-16T08:35:16;13;11;9
77538;PMS7003;67783;51.656;16.106;2023-05-16T08:38:17;11;9;6
77538;PMS7003;67783;51.656;16.106;2023-05-16T08:41:20;8;8;6
77538;PMS7003;67783;51.656;16.106;2023-05-16T08:44:22;7;7;5
77538;PMS7003;67783;51.656;16.106;2023-05-16T08:47:23;8;8;6
77538;PMS7003;67783;51.656;16.106;2023-05-16T08:50:30;8;8;6
77538;PMS7003;67783;51.656;16.106;2023-05-16T08:53:43;10;9;6
77538;PMS7003;67783;51.656;16.106;2023-05-16T08:56:46;9;7;5
77538;PMS7003;67783;51.656;16.106;2023-05-16T08:59:50;10;7;5
77538;PMS7003;67783;51.656;16.106;2023-05-16T09:03:01;11;9;6
77538;PMS7003;67783;51.656;16.106;2023-05-16T09:06:05;7;7;5
77538;PMS7003;67783;51.656;16.106;2023-05-16T09:09:07;10;8;5
77538;PMS7003;67783;51.656;16.106;2023-05-16T09:12:12;9;8;5
77538;PMS7003;67783;51.656;16.106;2023-05-16T09:15:16;13;10;7
77538;PMS7003;67783;51.656;16.106;2023-05-16T09:18:22;11;10;7
77538;PMS7003;67783;51.656;16.106;2023-05-16T09:21:26;9;7;6
77538;PMS7003;67783;51.656;16.106;2023-05-16T09:24:41;11;10;7
77538;PMS7003;67783;51.656;16.106;2023-05-16T09:27:52;11;9;7
77538;PMS7003;67783;51.656;16.106;2023-05-16T09:30:54;11;9;6
77538;PMS7003;67783;51.656;16.106;2023-05-16T09:33:59;9;8;7
77538;PMS7003;67783;51.656;16.106;2023-05-16T09:37:00;9;6;5
77538;PMS7003;67783;51.656;16.106;2023-05-16T09:40:02;12;9;6
77538;PMS7003;67783;51.656;16.106;2023-05-16T09:43:09;10;7;6
77538;PMS7003;67783;51.656;16.106;2023-05-16T09:46:11;9;8;5
77538;PMS7003;67783;51.656;16.106;2023-05-16T09:49:16;11;11;5
77538;PMS7003;67783;51.656;16.106;2023-05-16T09:52:18;9;8;5
77538;PMS7003;67783;51.656;16.106;2023-05-16T09:55:19;6;6;4
77538;PMS7003;67783;51.656;16.106;2023-05-16T09:58:30;7;7;6
77538;PMS7003;67783;51.656;16.106;2023-05-16T10:01:34;6;6;5
77538;PMS7003;67783;51.656;16.106;2023-05-16T10:04:36;8;8;5
77538;PMS7003;67783;51.656;16.106;2023-05-16T10:07:38;6;6;4
77538;PMS7003;67783;51.656;16.106;2023-05-16T10:10:41;8;8;6
77538;PMS7003;67783;51.656;16.106;2023-05-16T10:13:50;8;8;5
77538;PMS7003;67783;51.656;16.106;2023-05-16T10:16:53;6;6;5
77538;PMS7003;67783;51.656;16.106;2023-05-16T10:19:57;11;10;5
77538;PMS7003;67783;51.656;16.106;2023-05-16T10:23:05;8;8;4
77538;PMS7003;67783;51.656;16.106;2023-05-16T10:26:09;9;7;4
77538;PMS7003;67783;51.656;16.106;2023-05-16T10:29:14;8;6;5
77538;PMS7003;67783;51.656;16.106;2023-05-16T10:32:16;8;8;5
77538;PMS7003;67783;51.656;16.106;2023-05-16T10:35:19;4;4;3
77538;PMS7003;67783;51.656;16.106;2023-05-16T10:38:21;6;5;4
77538;PMS7003;67783;51.656;16.106;2023-05-16T10:41:24;12;8;5
77538;PMS7003;67783;51.656;16.106;2023-05-16T10:44:34;8;6;3
77538;PMS7003;67783;51.656;16.106;2023-05-16T10:47:40;7;7;5
77538;PMS7003;67783;51.656;16.106;2023-05-16T10:50:44;9;8;5
77538;PMS7003;67783;51.656;16.106;2023-05-16T10:53:46;13;9;6
77538;PMS7003;67783;51.656;16.106;2023-05-16T10:56:54;11;8;5
77538;PMS7003;67783;51.656;16.106;2023-05-16T10:59:57;10;9;6
77538;PMS7003;67783;51.656;16.106;2023-05-16T11:03:04;8;7;5
77538;PMS7003;67783;51.656;16.106;2023-05-16T11:06:06;11;7;4
77538;PMS7003;67783;51.656;16.106;2023-05-16T11:12:22;7;6;4
77538;PMS7003;67783;51.656;16.106;2023-05-16T11:15:27;6;4;3
77538;PMS7003;67783;51.656;16.106;2023-05-16T11:18:31;9;8;5
77538;PMS7003;67783;51.656;16.106;2023-05-16T11:28:11;7;7;5
77538;PMS7003;67783;51.656;16.106;2023-05-16T11:31:14;5;5;3
77538;PMS7003;67783;51.656;16.106;2023-05-16T11:34:20;6;6;4
77538;PMS7003;67783;51.656;16.106;2023-05-16T11:37:21;7;5;3
77538;PMS7003;67783;51.656;16.106;2023-05-16T11:40:23;9;7;4
77538;PMS7003;67783;51.656;16.106;2023-05-16T11:43:24;6;6;5
77538;PMS7003;67783;51.656;16.106;2023-05-16T11:46:26;5;5;4
77538;PMS7003;67783;51.656;16.106;2023-05-16T11:49:27;5;5;4
77538;PMS7003;67783;51.656;16.106;2023-05-16T11:52:29;6;4;3
77538;PMS7003;67783;51.656;16.106;2023-05-16T11:55:34;7;4;4
77538;PMS7003;67783;51.656;16.106;2023-05-16T11:58:38;9;8;5
77538;PMS7003;67783;51.656;16.106;2023-05-16T12:01:41;10;5;4
77538;PMS7003;67783;51.656;16.106;2023-05-16T12:04:46;8;6;5
77538;PMS7003;67783;51.656;16.106;2023-05-16T12:07:50;8;7;4
77538;PMS7003;67783;51.656;16.106;2023-05-16T12:10:55;5;5;3
77538;PMS7003;67783;51.656;16.106;2023-05-16T12:13:56;5;5;3
77538;PMS7003;67783;51.656;16.106;2023-05-16T12:17:00;7;6;5
77538;PMS7003;67783;51.656;16.106;2023-05-16T12:20:04;9;9;6
77538;PMS7003;67783;51.656;16.106;2023-05-16T12:23:11;6;5;4
77538;PMS7003;67783;51.656;16.106;2023-05-16T12:26:22;10;9;6
77538;PMS7003;67783;51.656;16.106;2023-05-16T12:29:26;6;6;4
77538;PMS7003;67783;51.656;16.106;2023-05-16T12:32:29;5;5;4
77538;PMS7003;67783;51.656;16.106;2023-05-16T12:35:31;7;7;5
77538;PMS7003;67783;51.656;16.106;2023-05-16T12:38:33;10;6;4
77538;PMS7003;67783;51.656;16.106;2023-05-16T12:41:41;5;5;4
77538;PMS7003;67783;51.656;16.106;2023-05-16T12:44:46;5;5;4
77538;PMS7003;67783;51.656;16.106;2023-05-16T12:47:48;6;6;5
77538;PMS7003;67783;51.656;16.106;2023-05-16T12:50:50;13;9;6
77538;PMS7003;67783;51.656;16.106;2023-05-16T12:53:53;7;6;4
77538;PMS7003;67783;51.656;16.106;2023-05-16T12:56:59;8;7;6
77538;PMS7003;67783;51.656;16.106;2023-05-16T13:00:00;6;5;4
77538;PMS7003;67783;51.656;16.106;2023-05-16T13:03:02;8;7;5
77538;PMS7003;67783;51.656;16.106;2023-05-16T13:06:05;5;5;4
77538;PMS7003;67783;51.656;16.106;2023-05-16T13:09:06;9;7;5
77538;PMS7003;67783;51.656;16.106;2023-05-16T13:12:08;5;5;4
77538;PMS7003;67783;51.656;16.106;2023-05-16T13:15:10;6;6;4
77538;PMS7003;67783;51.656;16.106;2023-05-16T13:18:15;7;6;5
77538;PMS7003;67783;51.656;16.106;2023-05-16T13:21:16;6;5;3
77538;PMS7003;67783;51.656;16.106;2023-05-16T13:24:18;7;7;5
77538;PMS7003;67783;51.656;16.106;2023-05-16T13:27:19;5;4;3
77538;PMS7003;67783;51.656;16.106;2023-05-16T13:30:21;5;5;4
77538;PMS7003;67783;51.656;16.106;2023-05-16T13:33:24;7;4;3
77538;PMS7003;67783;51.656;16.106;2023-05-16T13:36:26;7;7;4
77538;PMS7003;67783;51.656;16.106;2023-05-16T13:39:31;5;5;3
77538;PMS7003;67783;51.656;16.106;2023-05-16T13:42:32;4;4;3
77538;PMS7003;67783;51.656;16.106;2023-05-16T13:45:34;6;6;4
77538;PMS7003;67783;51.656;16.106;2023-05-16T13:48:37;6;6;5
77538;PMS7003;67783;51.656;16.106;2023-05-16T13:51:38;5;4;4
77538;PMS7003;67783;51.656;16.106;2023-05-16T13:54:51;10;7;4
77538;PMS7003;67783;51.656;16.106;2023-05-16T13:57:53;5;5;3
77538;PMS7003;67783;51.656;16.106;2023-05-16T14:00:54;6;6;5
77538;PMS7003;67783;51.656;16.106;2023-05-16T14:03:56;5;5;3
77538;PMS7003;67783;51.656;16.106;2023-05-16T14:06:58;7;7;4
77538;PMS7003;67783;51.656;16.106;2023-05-16T14:09:59;5;4;3
77538;PMS7003;67783;51.656;16.106;2023-05-16T14:13:01;5;5;3
77538;PMS7003;67783;51.656;16.106;2023-05-16T14:16:06;7;6;5
77538;PMS7003;67783;51.656;16.106;2023-05-16T14:19:08;4;4;3
77538;PMS7003;67783;51.656;16.106;2023-05-16T14:22:09;6;6;5
77538;PMS7003;67783;51.656;16.106;2023-05-16T14:25:11;7;5;3
77538;PMS7003;67783;51.656;16.106;2023-05-16T14:28:12;6;6;4
77538;PMS7003;67783;51.656;16.106;2023-05-16T14:31:14;5;5;3
77538;PMS7003;67783;51.656;16.106;2023-05-16T14:34:16;8;7;5
77538;PMS7003;67783;51.656;16.106;2023-05-16T14:37:21;7;6;4
77538;PMS7003;67783;51.656;16.106;2023-05-16T14:40:23;6;6;4
77538;PMS7003;67783;51.656;16.106;2023-05-16T14:43:25;7;6;4
77538;PMS7003;67783;51.656;16.106;2023-05-16T14:46:26;5;5;4
77538;PMS7003;67783;51.656;16.106;2023-05-16T14:49:28;5;5;4
77538;PMS7003;67783;51.656;16.106;2023-05-16T14:52:30;5;4;3
77538;PMS7003;67783;51.656;16.106;2023-05-16T14:55:32;6;5;3
77538;PMS7003;67783;51.656;16.106;2023-05-16T14:58:38;7;6;4
77538;PMS7003;67783;51.656;16.106;2023-05-16T15:01:40;5;5;3
77538;PMS7003;67783;51.656;16.106;2023-05-16T15:04:41;9;8;5
77538;PMS7003;67783;51.656;16.106;2023-05-16T15:07:43;8;6;5
77538;PMS7003;67783;51.656;16.106;2023-05-16T15:10:45;7;7;3
77538;PMS7003;67783;51.656;16.106;2023-05-16T15:13:46;9;6;3
77538;PMS7003;67783;51.656;16.106;2023-05-16T15:16:51;7;7;5
77538;PMS7003;67783;51.656;16.106;2023-05-16T15:19:56;7;6;5
77538;PMS7003;67783;51.656;16.106;2023-05-16T15:22:59;10;10;7
77538;PMS7003;67783;51.656;16.106;2023-05-16T15:26:03;8;8;5
77538;PMS7003;67783;51.656;16.106;2023-05-16T15:29:04;5;5;3
77538;PMS7003;67783;51.656;16.106;2023-05-16T15:32:08;7;4;4
77538;PMS7003;67783;51.656;16.106;2023-05-16T15:35:16;8;7;5
77538;PMS7003;67783;51.656;16.106;2023-05-16T15:38:18;6;6;5
77538;PMS7003;67783;51.656;16.106;2023-05-16T15:41:19;6;6;5
77538;PMS7003;67783;51.656;16.106;2023-05-16T15:44:22;11;7;6
77538;PMS7003;67783;51.656;16.106;2023-05-16T15:47:24;7;7;5
77538;PMS7003;67783;51.656;16.106;2023-05-16T15:50:37;12;9;7
77538;PMS7003;67783;51.656;16.106;2023-05-16T15:53:39;8;6;4
77538;PMS7003;67783;51.656;16.106;2023-05-16T15:56:41;8;5;3
77538;PMS7003;67783;51.656;16.106;2023-05-16T15:59:43;7;6;4
77538;PMS7003;67783;51.656;16.106;2023-05-16T16:02:45;8;8;5
77538;PMS7003;67783;51.656;16.106;2023-05-16T16:05:58;5;4;2
77538;PMS7003;67783;51.656;16.106;2023-05-16T16:08:59;9;7;5
77538;PMS7003;67783;51.656;16.106;2023-05-16T16:12:01;6;5;3
77538;PMS7003;67783;51.656;16.106;2023-05-16T16:15:03;10;5;3
77538;PMS7003;67783;51.656;16.106;2023-05-16T16:18:06;7;3;2
77538;PMS7003;67783;51.656;16.106;2023-05-16T16:21:18;9;8;5
77538;PMS7003;67783;51.656;16.106;2023-05-16T16:24:21;6;6;4
77538;PMS7003;67783;51.656;16.106;2023-05-16T16:27:22;7;6;4
77538;PMS7003;67783;51.656;16.106;2023-05-16T16:30:24;7;5;4
77538;PMS7003;67783;51.656;16.106;2023-05-16T16:33:27;4;4;3
77538;PMS7003;67783;51.656;16.106;2023-05-16T16:36:39;4;4;3
77538;PMS7003;67783;51.656;16.106;2023-05-16T16:39:41;8;5;4
77538;PMS7003;67783;51.656;16.106;2023-05-16T16:42:43;7;6;5
77538;PMS7003;67783;51.656;16.106;2023-05-16T16:45:45;4;4;2
77538;PMS7003;67783;51.656;16.106;2023-05-16T16:48:47;8;4;3
77538;PMS7003;67783;51.656;16.106;2023-05-16T16:51:59;9;5;4
77538;PMS7003;67783;51.656;16.106;2023-05-16T16:55:01;6;5;3
77538;PMS7003;67783;51.656;16.106;2023-05-16T16:58:03;9;5;4
77538;PMS7003;67783;51.656;16.106;2023-05-16T17:01:04;6;6;5
77538;PMS7003;67783;51.656;16.106;2023-05-16T17:04:06;9;9;7
77538;PMS7003;67783;51.656;16.106;2023-05-16T17:07:08;5;5;4
77538;PMS7003;67783;51.656;16.106;2023-05-16T17:10:09;7;7;4
77538;PMS7003;67783;51.656;16.106;2023-05-16T17:13:15;5;5;4
77538;PMS7003;67783;51.656;16.106;2023-05-16T17:16:18;7;6;4
77538;PMS7003;67783;51.656;16.106;2023-05-16T17:19:20;3;3;2
77538;PMS7003;67783;51.656;16.106;2023-05-16T17:22:21;9;6;4
77538;PMS7003;67783;51.656;16.106;2023-05-16T17:25:23;7;5;3
77538;PMS7003;67783;51.656;16.106;2023-05-16T17:28:35;7;7;4
77538;PMS7003;67783;51.656;16.106;2023-05-16T17:31:36;6;5;3
77538;PMS7003;67783;51.656;16.106;2023-05-16T17:34:38;9;6;4
77538;PMS7003;67783;51.656;16.106;2023-05-16T17:37:39;8;7;5
77538;PMS7003;67783;51.656;16.106;2023-05-16T17:40:42;5;5;3
77538;PMS7003;67783;51.656;16.106;2023-05-16T17:43:44;7;4;3
77538;PMS7003;67783;51.656;16.106;2023-05-16T17:46:47;4;4;3
77538;PMS7003;67783;51.656;16.106;2023-05-16T17:49:52;4;4;2
77538;PMS7003;67783;51.656;16.106;2023-05-16T17:52:53;6;4;3
77538;PMS7003;67783;51.656;16.106;2023-05-16T17:55:55;6;3;3
77538;PMS7003;67783;51.656;16.106;2023-05-16T17:58:57;4;4;3
77538;PMS7003;67783;51.656;16.106;2023-05-16T18:01:59;5;4;3
77538;PMS7003;67783;51.656;16.106;2023-05-16T18:05:00;4;4;3
77538;PMS7003;67783;51.656;16.106;2023-05-16T18:08:02;3;3;2
77538;PMS7003;67783;51.656;16.106;2023-05-16T18:11:07;4;4;3
77538;PMS7003;67783;51.656;16.106;2023-05-16T18:14:09;2;2;1
77538;PMS7003;67783;51.656;16.106;2023-05-16T18:17:14;5;4;3
77538;PMS7003;67783;51.656;16.106;2023-05-16T18:20:16;5;5;3
77538;PMS7003;67783;51.656;16.106;2023-05-16T18:23:19;4;4;3
77538;PMS7003;67783;51.656;16.106;2023-05-16T18:26:27;5;4;3
77538;PMS7003;67783;51.656;16.106;2023-05-16T18:29:29;5;5;4
77538;PMS7003;67783;51.656;16.106;2023-05-16T18:32:31;4;4;3
77538;PMS7003;67783;51.656;16.106;2023-05-16T18:35:33;4;4;3
77538;PMS7003;67783;51.656;16.106;2023-05-16T18:38:34;4;4;3
77538;PMS7003;67783;51.656;16.106;2023-05-16T18:41:36;5;3;2
77538;PMS7003;67783;51.656;16.106;2023-05-16T18:44:37;3;2;2
77538;PMS7003;67783;51.656;16.106;2023-05-16T18:47:42;2;2;2
77538;PMS7003;67783;51.656;16.106;2023-05-16T18:50:44;2;2;1
77538;PMS7003;67783;51.656;16.106;2023-05-16T18:53:45;4;3;2
77538;PMS7003;67783;51.656;16.106;2023-05-16T18:56:47;3;2;1
77538;PMS7003;67783;51.656;16.106;2023-05-16T18:59:48;2;1;1
77538;PMS7003;67783;51.656;16.106;2023-05-16T19:02:50;1;1;1
77538;PMS7003;67783;51.656;16.106;2023-05-16T19:05:51;3;2;1
77538;PMS7003;67783;51.656;16.106;2023-05-16T19:08:57;3;3;2
77538;PMS7003;67783;51.656;16.106;2023-05-16T19:11:58;1;1;1
77538;PMS7003;67783;51.656;16.106;2023-05-16T19:15:00;2;2;2
77538;PMS7003;67783;51.656;16.106;2023-05-16T19:18:02;1;1;1
77538;PMS7003;67783;51.656;16.106;2023-05-16T19:21:05;2;1;1
77538;PMS7003;67783;51.656;16.106;2023-05-16T19:24:18;2;2;1
77538;PMS7003;67783;51.656;16.106;2023-05-16T19:27:19;2;2;1
77538;PMS7003;67783;51.656;16.106;2023-05-16T19:30:21;5;1;1
77538;PMS7003;67783;51.656;16.106;2023-05-16T19:33:23;1;1;1
77538;PMS7003;67783;51.656;16.106;2023-05-16T19:36:25;1;1;1
77538;PMS7003;67783;51.656;16.106;2023-05-16T19:39:27;2;0;0
77538;PMS7003;67783;51.656;16.106;2023-05-16T19:42:31;2;2;1
77538;PMS7003;67783;51.656;16.106;2023-05-16T19:45:36;7;2;2
77538;PMS7003;67783;51.656;16.106;2023-05-16T19:48:37;1;1;1
77538;PMS7003;67783;51.656;16.106;2023-05-16T19:51:39;1;1;1
77538;PMS7003;67783;51.656;16.106;2023-05-16T19:54:41;1;1;1
77538;PMS7003;67783;51.656;16.106;2023-05-16T19:57:43;3;3;2
77538;PMS7003;67783;51.656;16.106;2023-05-16T20:00:44;1;1;0
77538;PMS7003;67783;51.656;16.106;2023-05-16T20:03:46;1;1;1
77538;PMS7003;67783;51.656;16.106;2023-05-16T20:06:51;2;1;1
77538;PMS7003;67783;51.656;16.106;2023-05-16T20:09:53;3;3;2
77538;PMS7003;67783;51.656;16.106;2023-05-16T20:12:55;4;3;2
77538;PMS7003;67783;51.656;16.106;2023-05-16T20:15:57;2;2;2
77538;PMS7003;67783;51.656;16.106;2023-05-16T20:18:58;1;1;1
77538;PMS7003;67783;51.656;16.106;2023-05-16T20:22:00;2;2;2
77538;PMS7003;67783;51.656;16.106;2023-05-16T20:25:02;3;3;1
77538;PMS7003;67783;51.656;16.106;2023-05-16T20:28:06;1;1;1